Time;durP1;ratioP1;P1;durP2;ratioP2;P2;SDS_P1;SDS_P2;PMS_P1;PMS_P2;Temp;Humidity;BMP_temperature;BMP_pressure;BME280_temperature;BME280_humidity;BME280_pressure;Samples;Min_cycle;Max_cycle;Signal;HPM_P1;HPM_P2
2021/07/04 00:02:12;;;;;;;19.58;12.13;;;17.20;99.90;;;;;;5087641;28;20027;-63
2021/07/04 00:04:38;;;;;;;19.20;12.38;;;17.20;99.90;;;;;;5083705;28;20028;-62
2021/07/04 00:07:04;;;;;;;17.85;11.82;;;17.20;99.90;;;;;;5087299;28;20502;-63
2021/07/04 00:09:30;;;;;;;19.70;12.07;;;17.20;99.90;;;;;;5085436;28;20029;-62
2021/07/04 00:11:56;;;;;;;21.27;12.02;;;17.20;99.90;;;;;;5068718;28;20040;-63
2021/07/04 00:14:24;;;;;;;17.83;11.07;;;17.20;99.90;;;;;;5087564;28;20115;-63
2021/07/04 00:16:50;;;;;;;18.67;12.30;;;17.10;99.90;;;;;;5067740;28;20391;-62
2021/07/04 00:19:16;;;;;;;17.20;11.48;;;17.10;99.90;;;;;;5085304;28;20111;-62
2021/07/04 00:21:42;;;;;;;14.25;10.73;;;17.10;99.90;;;;;;5083865;28;20023;-62
2021/07/04 00:24:08;;;;;;;18.98;12.45;;;17.20;99.90;;;;;;5086672;28;20032;-63
2021/07/04 00:26:34;;;;;;;17.65;12.98;;;17.10;99.90;;;;;;5087047;28;20047;-63
2021/07/04 00:29:00;;;;;;;16.10;11.18;;;17.20;99.90;;;;;;5086637;28;20483;-62
2021/07/04 00:31:26;;;;;;;20.13;12.13;;;17.20;99.90;;;;;;5085573;28;20032;-62
2021/07/04 00:33:52;;;;;;;17.48;11.43;;;17.20;99.90;;;;;;5086764;28;20573;-62
2021/07/04 00:36:18;;;;;;;15.75;10.30;;;17.20;99.90;;;;;;5085052;28;20146;-62
2021/07/04 00:38:43;;;;;;;14.18;10.40;;;17.20;99.90;;;;;;5087237;28;20032;-63
2021/07/04 00:41:10;;;;;;;18.67;10.25;;;17.20;99.90;;;;;;5084800;28;20056;-62
2021/07/04 00:43:36;;;;;;;17.02;11.20;;;17.20;99.90;;;;;;5084742;28;20368;-62
2021/07/04 00:46:02;;;;;;;13.07;9.25;;;17.20;99.90;;;;;;5086995;28;20111;-63
2021/07/04 00:48:28;;;;;;;14.50;9.65;;;17.20;99.90;;;;;;5087910;28;20042;-63
2021/07/04 00:50:54;;;;;;;14.88;10.20;;;17.20;99.90;;;;;;5085663;28;20024;-63
2021/07/04 00:53:22;;;;;;;12.98;9.82;;;17.20;99.90;;;;;;5067281;28;20085;-63
2021/07/04 00:55:48;;;;;;;12.77;9.00;;;17.20;99.90;;;;;;5085316;28;20054;-63
2021/07/04 00:58:13;;;;;;;11.65;9.15;;;17.10;99.90;;;;;;5082457;28;20531;-62
2021/07/04 01:00:41;;;;;;;12.32;9.02;;;17.10;99.90;;;;;;5084474;28;20062;-62
2021/07/04 01:03:07;;;;;;;14.90;10.00;;;17.10;99.90;;;;;;5084501;28;20799;-63
2021/07/04 01:05:35;;;;;;;13.65;9.05;;;17.20;99.90;;;;;;5086099;28;20036;-62
2021/07/04 01:08:03;;;;;;;14.65;9.63;;;17.20;99.90;;;;;;5082364;28;20037;-63
2021/07/04 01:10:31;;;;;;;12.35;9.75;;;17.10;99.90;;;;;;5083129;28;20317;-63
2021/07/04 01:12:59;;;;;;;13.32;9.48;;;17.30;99.90;;;;;;5086556;28;20335;-62
2021/07/04 01:15:26;;;;;;;15.18;9.23;;;17.20;99.90;;;;;;5084838;28;20559;-63
2021/07/04 01:17:54;;;;;;;14.80;9.80;;;17.30;99.90;;;;;;5085617;28;20125;-62
2021/07/04 01:20:23;;;;;;;12.87;9.17;;;17.20;99.90;;;;;;5084676;28;20039;-63
2021/07/04 01:23:12;;;;;;;14.00;9.13;;;17.20;99.90;;;;;;5085510;28;20401;-63
2021/07/04 01:25:52;;;;;;;20.77;10.25;;;17.10;99.90;;;;;;5064783;28;20312;-62
2021/07/04 01:28:17;;;;;;;15.65;8.93;;;17.10;99.90;;;;;;5064430;28;20051;-63
2021/07/04 01:30:45;;;;;;;14.88;9.70;;;17.10;99.90;;;;;;5065196;28;20048;-63
2021/07/04 01:33:11;;;;;;;13.00;9.23;;;17.10;99.90;;;;;;5062835;28;20075;-63
2021/07/04 01:35:37;;;;;;;15.85;9.90;;;17.10;99.90;;;;;;5067172;28;20180;-63
2021/07/04 01:38:04;;;;;;;14.85;10.70;;;17.10;99.90;;;;;;5063204;28;20028;-63
2021/07/04 01:40:33;;;;;;;14.02;9.15;;;17.10;99.90;;;;;;5065321;28;20546;-63
2021/07/04 01:43:01;;;;;;;14.88;9.20;;;17.10;99.90;;;;;;5062587;28;20039;-63
2021/07/04 01:45:27;;;;;;;13.88;9.45;;;17.10;99.90;;;;;;5044433;28;20336;-63
2021/07/04 01:47:54;;;;;;;12.20;9.07;;;17.10;99.90;;;;;;5065616;28;20523;-62
2021/07/04 01:50:25;;;;;;;17.67;10.38;;;17.00;99.90;;;;;;5062113;28;20043;-63
2021/07/04 01:52:51;;;;;;;13.98;9.52;;;17.00;99.90;;;;;;5065518;28;20040;-63
2021/07/04 01:55:18;;;;;;;13.65;10.20;;;17.00;99.90;;;;;;5063923;28;20052;-63
2021/07/04 01:57:45;;;;;;;14.82;10.27;;;17.00;99.90;;;;;;5064762;28;20097;-63
2021/07/04 02:00:16;;;;;;;13.90;10.20;;;17.00;99.90;;;;;;5064524;28;20547;-63
2021/07/04 02:02:44;;;;;;;12.20;9.38;;;17.10;99.90;;;;;;5062910;28;20033;-63
2021/07/04 02:05:10;;;;;;;14.80;9.77;;;17.00;99.90;;;;;;5063676;28;20507;-63
2021/07/04 02:07:36;;;;;;;17.40;10.60;;;17.00;99.90;;;;;;5064223;28;20036;-63
2021/07/04 02:10:04;;;;;;;14.63;10.32;;;17.10;99.90;;;;;;5065437;28;20125;-63
2021/07/04 02:12:30;;;;;;;12.50;10.52;;;17.00;99.90;;;;;;5064846;28;20402;-63
2021/07/04 02:14:56;;;;;;;18.90;11.10;;;17.10;99.90;;;;;;5064135;28;20020;-63
2021/07/04 02:17:22;;;;;;;14.65;10.60;;;17.00;99.90;;;;;;5064023;28;20313;-63
2021/07/04 02:19:48;;;;;;;13.23;9.75;;;17.00;99.90;;;;;;5064291;28;20032;-63
2021/07/04 02:22:14;;;;;;;14.45;10.50;;;17.00;99.90;;;;;;5060517;28;20115;-63
2021/07/04 02:24:40;;;;;;;15.90;10.45;;;17.00;99.90;;;;;;5067201;28;20069;-63
2021/07/04 02:27:07;;;;;;;14.52;11.02;;;17.00;99.90;;;;;;5084300;28;20074;-63
2021/07/04 02:29:33;;;;;;;16.90;10.82;;;17.00;99.90;;;;;;5085755;28;20054;-63
2021/07/04 02:31:59;;;;;;;12.98;9.65;;;17.00;99.90;;;;;;5086497;28;20402;-63
2021/07/04 02:34:28;;;;;;;15.13;9.73;;;17.00;99.90;;;;;;5084642;28;20024;-63
2021/07/04 02:36:54;;;;;;;15.60;11.23;;;17.00;99.90;;;;;;5084865;28;20209;-63
2021/07/04 02:39:19;;;;;;;17.48;10.77;;;16.90;99.90;;;;;;5083713;28;20039;-63
2021/07/04 02:41:45;;;;;;;11.73;9.63;;;17.00;99.90;;;;;;5085614;28;20498;-63
2021/07/04 02:44:11;;;;;;;13.73;9.88;;;17.00;99.90;;;;;;5085157;28;20059;-64
2021/07/04 02:46:37;;;;;;;14.20;9.75;;;17.00;99.90;;;;;;5086000;28;20028;-63
2021/07/04 02:49:05;;;;;;;15.68;10.73;;;17.00;99.90;;;;;;5083104;28;20020;-63
2021/07/04 02:51:31;;;;;;;13.60;9.95;;;17.00;99.90;;;;;;5081311;28;20028;-63
2021/07/04 02:53:57;;;;;;;13.77;10.23;;;16.90;99.90;;;;;;5084570;28;20039;-63
2021/07/04 02:56:23;;;;;;;14.77;10.70;;;16.90;99.90;;;;;;5085495;28;20459;-63
2021/07/04 02:58:49;;;;;;;14.95;11.25;;;16.80;99.90;;;;;;5087427;28;20043;-63
2021/07/04 03:01:14;;;;;;;19.60;12.23;;;16.90;99.90;;;;;;5068335;28;20595;-63
2021/07/04 03:03:40;;;;;;;13.93;10.45;;;16.90;99.90;;;;;;5089081;28;20221;-63
2021/07/04 03:06:06;;;;;;;15.20;10.88;;;16.80;99.90;;;;;;5087333;28;20024;-63
2021/07/04 03:08:32;;;;;;;21.75;11.15;;;16.80;99.90;;;;;;5086007;28;20028;-63
2021/07/04 03:10:58;;;;;;;16.55;11.55;;;16.80;99.90;;;;;;5085916;28;20479;-63
2021/07/04 03:13:24;;;;;;;15.30;11.40;;;16.90;99.90;;;;;;5049483;28;20064;-63
2021/07/04 03:15:49;;;;;;;16.42;10.30;;;16.90;99.90;;;;;;5087947;28;20129;-63
2021/07/04 03:18:15;;;;;;;18.17;11.90;;;16.90;99.90;;;;;;5087401;28;20084;-63
2021/07/04 03:20:41;;;;;;;15.95;11.43;;;16.90;99.90;;;;;;5087437;28;20028;-63
2021/07/04 03:23:07;;;;;;;16.92;11.90;;;16.80;99.90;;;;;;5087240;28;20059;-63
2021/07/04 03:25:33;;;;;;;15.40;11.27;;;16.80;99.90;;;;;;5088294;28;20051;-63
2021/07/04 03:27:59;;;;;;;20.02;10.50;;;16.90;99.90;;;;;;5086000;28;20621;-63
2021/07/04 03:30:24;;;;;;;15.52;11.85;;;16.80;99.90;;;;;;5088330;28;20028;-63
2021/07/04 03:32:51;;;;;;;19.42;11.95;;;16.80;99.90;;;;;;5084652;28;20103;-63
2021/07/04 03:35:18;;;;;;;17.58;12.38;;;16.80;99.90;;;;;;5088579;28;20058;-63
2021/07/04 03:37:45;;;;;;;18.35;10.07;;;16.80;99.90;;;;;;5068163;28;20031;-63
2021/07/04 03:40:14;;;;;;;14.35;11.00;;;16.90;99.90;;;;;;5087215;28;20536;-63
2021/07/04 03:42:40;;;;;;;16.20;11.23;;;16.80;99.90;;;;;;5086558;28;20159;-63
2021/07/04 03:45:07;;;;;;;15.98;11.77;;;16.80;99.90;;;;;;5086371;28;20028;-63
2021/07/04 03:47:33;;;;;;;13.90;10.30;;;16.80;99.90;;;;;;5087567;28;20450;-63
2021/07/04 03:49:59;;;;;;;17.08;12.18;;;16.80;99.90;;;;;;5086255;28;20354;-63
2021/07/04 03:52:25;;;;;;;17.23;11.73;;;16.80;99.90;;;;;;5087061;28;20036;-63
2021/07/04 03:54:51;;;;;;;17.88;11.93;;;16.80;99.90;;;;;;5086023;28;20512;-63
2021/07/04 03:57:23;;;;;;;20.83;11.27;;;16.90;99.90;;;;;;5088460;28;20099;-63
2021/07/04 03:59:57;;;;;;;20.35;11.98;;;17.00;99.90;;;;;;5084836;28;20016;-63
2021/07/04 04:02:23;;;;;;;18.63;11.68;;;16.90;99.90;;;;;;5085997;28;20103;-63
2021/07/04 04:04:53;;;;;;;21.67;12.38;;;16.90;99.90;;;;;;5088079;28;20275;-63
2021/07/04 04:07:19;;;;;;;23.25;12.45;;;16.70;99.90;;;;;;5066774;28;20016;-64
2021/07/04 04:09:47;;;;;;;18.83;12.48;;;16.70;99.90;;;;;;5084508;28;20051;-63
2021/07/04 04:12:12;;;;;;;20.83;13.75;;;16.80;99.90;;;;;;5086321;28;20567;-63
2021/07/04 04:14:38;;;;;;;23.85;13.13;;;16.80;99.90;;;;;;5086667;28;20118;-63
2021/07/04 04:17:05;;;;;;;26.38;13.68;;;16.80;99.90;;;;;;5085363;28;20059;-63
2021/07/04 04:19:31;;;;;;;21.17;13.35;;;16.80;99.90;;;;;;5084503;28;20355;-62
2021/07/04 04:21:57;;;;;;;24.65;14.27;;;16.80;99.90;;;;;;5085001;28;20421;-63
2021/07/04 04:24:22;;;;;;;25.65;15.00;;;16.90;99.90;;;;;;5087519;28;20039;-63
2021/07/04 04:26:48;;;;;;;24.88;13.75;;;16.90;99.90;;;;;;5066340;28;20052;-63
2021/07/04 04:29:14;;;;;;;21.60;13.98;;;16.80;99.90;;;;;;5085237;28;20479;-63
2021/07/04 04:31:40;;;;;;;24.23;14.05;;;16.80;99.90;;;;;;5084000;28;20047;-63
2021/07/04 04:34:06;;;;;;;23.00;15.98;;;16.70;99.90;;;;;;5087376;28;20556;-62
2021/07/04 04:36:31;;;;;;;23.33;15.82;;;16.70;99.90;;;;;;5085337;28;20020;-63
2021/07/04 04:38:57;;;;;;;23.40;16.15;;;16.80;99.90;;;;;;5086668;28;20345;-63
2021/07/04 04:41:23;;;;;;;24.45;15.20;;;16.80;99.90;;;;;;5084540;28;20028;-63
2021/07/04 04:43:49;;;;;;;23.38;16.80;;;16.70;99.90;;;;;;5084955;28;20042;-63
2021/07/04 04:46:15;;;;;;;25.88;17.20;;;16.80;99.90;;;;;;5086496;28;20076;-67
2021/07/04 04:48:43;;;;;;;28.60;17.85;;;16.80;99.90;;;;;;5086494;28;20126;-64
2021/07/04 04:51:09;;;;;;;27.77;17.25;;;16.80;99.90;;;;;;5085448;28;20759;-64
2021/07/04 04:53:34;;;;;;;23.73;17.23;;;16.70;99.90;;;;;;5084443;28;20309;-63
2021/07/04 04:56:00;;;;;;;21.10;16.58;;;16.70;99.90;;;;;;5068173;28;20769;-63
2021/07/04 04:58:26;;;;;;;26.15;18.27;;;16.70;99.90;;;;;;5063695;28;20039;-64
2021/07/04 05:00:52;;;;;;;22.23;17.42;;;16.70;99.90;;;;;;5068708;28;20024;-66
2021/07/04 05:03:18;;;;;;;26.15;17.33;;;16.70;99.90;;;;;;5082994;28;20070;-66
2021/07/04 05:05:43;;;;;;;24.90;17.95;;;16.70;99.90;;;;;;5085551;28;20027;-66
2021/07/04 05:08:09;;;;;;;27.92;17.85;;;16.70;99.90;;;;;;5084279;28;20127;-65
2021/07/04 05:10:35;;;;;;;21.50;16.02;;;16.70;99.90;;;;;;5083677;28;20032;-64
2021/07/04 05:13:01;;;;;;;31.02;18.30;;;16.70;99.90;;;;;;5064454;28;20106;-66
2021/07/04 05:15:27;;;;;;;28.98;17.05;;;16.70;99.90;;;;;;5082383;28;20031;-64
2021/07/04 05:17:52;;;;;;;25.70;17.92;;;16.70;99.90;;;;;;5082829;28;20036;-63
2021/07/04 05:20:18;;;;;;;22.23;17.10;;;16.70;99.90;;;;;;5083545;28;20031;-63
2021/07/04 05:22:44;;;;;;;23.25;16.52;;;16.70;99.90;;;;;;5085490;28;20420;-64
2021/07/04 05:25:11;;;;;;;24.88;17.08;;;16.80;99.90;;;;;;5083466;28;20051;-64
2021/07/04 05:27:37;;;;;;;22.67;17.80;;;16.80;99.90;;;;;;5083886;28;20160;-63
2021/07/04 05:30:04;;;;;;;21.48;16.23;;;16.70;99.90;;;;;;5080969;28;20605;-64
2021/07/04 05:32:30;;;;;;;22.52;17.00;;;16.70;99.90;;;;;;5085005;28;20452;-64
2021/07/04 05:34:56;;;;;;;21.63;16.42;;;16.70;99.90;;;;;;5084560;28;20038;-64
2021/07/04 05:37:22;;;;;;;25.77;17.63;;;16.80;99.90;;;;;;5081940;28;20138;-64
2021/07/04 05:39:48;;;;;;;20.05;16.73;;;16.80;99.90;;;;;;5087022;28;20513;-64
2021/07/04 05:42:13;;;;;;;22.83;15.85;;;16.90;99.90;;;;;;5065895;28;20127;-63
2021/07/04 05:44:42;;;;;;;21.42;16.25;;;16.90;99.90;;;;;;5082124;28;20032;-63
2021/07/04 05:47:08;;;;;;;21.70;14.98;;;16.80;99.90;;;;;;5081008;28;20607;-64
2021/07/04 05:49:35;;;;;;;19.02;14.50;;;16.90;99.90;;;;;;5080400;28;20024;-64
2021/07/04 05:52:01;;;;;;;19.70;15.18;;;16.90;99.90;;;;;;5083209;28;20020;-63
2021/07/04 05:54:27;;;;;;;17.67;12.88;;;16.90;99.90;;;;;;5079541;28;20071;-64
2021/07/04 05:56:53;;;;;;;20.17;15.13;;;16.90;99.90;;;;;;5083526;28;20020;-64
2021/07/04 05:59:19;;;;;;;19.92;13.98;;;17.00;99.90;;;;;;5063995;28;20023;-63
2021/07/04 06:01:44;;;;;;;24.10;14.68;;;17.00;99.90;;;;;;5083182;28;20326;-64
2021/07/04 06:04:10;;;;;;;19.83;13.68;;;17.00;99.90;;;;;;5084498;28;20028;-64
2021/07/04 06:06:36;;;;;;;19.75;12.90;;;17.10;99.90;;;;;;5083835;28;20064;-64
2021/07/04 06:09:02;;;;;;;20.30;14.38;;;17.10;99.90;;;;;;5084162;28;20035;-64
2021/07/04 06:11:28;;;;;;;18.85;15.55;;;17.20;99.90;;;;;;5083501;28;20197;-64
2021/07/04 06:13:54;;;;;;;18.42;14.63;;;17.20;99.90;;;;;;5085450;28;20044;-63
2021/07/04 06:16:20;;;;;;;16.65;12.23;;;17.30;99.90;;;;;;5083332;28;20031;-64
2021/07/04 06:18:46;;;;;;;16.85;12.73;;;17.20;99.90;;;;;;5083586;28;20035;-64
2021/07/04 06:21:11;;;;;;;18.70;14.38;;;17.20;99.90;;;;;;5085809;28;20710;-64
2021/07/04 06:23:37;;;;;;;19.15;14.07;;;17.20;99.90;;;;;;5066225;28;20035;-64
2021/07/04 06:26:03;;;;;;;16.13;12.93;;;17.20;99.90;;;;;;5081391;28;20043;-64
2021/07/04 06:28:29;;;;;;;18.70;13.20;;;17.30;99.90;;;;;;5086197;28;20031;-64
2021/07/04 06:30:55;;;;;;;19.58;13.77;;;17.30;99.90;;;;;;5084834;28;20125;-64
2021/07/04 06:33:21;;;;;;;18.00;13.52;;;17.30;99.90;;;;;;5083982;28;20255;-64
2021/07/04 06:35:47;;;;;;;17.17;14.15;;;17.20;99.90;;;;;;5085458;28;20706;-66
2021/07/04 06:38:12;;;;;;;20.50;14.02;;;17.10;99.90;;;;;;5085247;28;20028;-64
2021/07/04 06:40:38;;;;;;;18.38;13.48;;;17.10;99.90;;;;;;5085079;28;20019;-64
2021/07/04 06:43:04;;;;;;;15.70;12.82;;;17.00;99.90;;;;;;5087911;28;20153;-64
2021/07/04 06:45:30;;;;;;;15.73;13.10;;;17.00;99.90;;;;;;5070833;28;20498;-64
2021/07/04 06:47:56;;;;;;;17.90;12.73;;;17.00;99.90;;;;;;5089155;28;20455;-64
2021/07/04 06:50:22;;;;;;;17.35;12.80;;;17.10;99.90;;;;;;5085104;28;20016;-64
2021/07/04 06:52:48;;;;;;;17.58;12.98;;;17.10;99.90;;;;;;5087394;28;20462;-64
2021/07/04 06:55:15;;;;;;;15.43;12.27;;;17.10;99.90;;;;;;5085897;28;20053;-64
2021/07/04 06:57:41;;;;;;;15.15;12.35;;;17.10;99.90;;;;;;5086489;28;20049;-64
2021/07/04 07:00:12;;;;;;;15.10;12.77;;;17.20;99.90;;;;;;5085009;28;20135;-64
2021/07/04 07:02:39;;;;;;;18.23;12.82;;;17.20;99.90;;;;;;5084406;28;20059;-64
2021/07/04 07:05:07;;;;;;;16.02;12.13;;;17.20;99.90;;;;;;5083773;28;20031;-64
2021/07/04 07:07:32;;;;;;;14.57;11.40;;;17.10;99.90;;;;;;5068729;28;20081;-64
2021/07/04 07:09:58;;;;;;;16.30;11.95;;;17.20;99.90;;;;;;5084788;28;20035;-65
2021/07/04 07:12:24;;;;;;;12.77;11.00;;;17.20;99.90;;;;;;5083495;28;20085;-64
2021/07/04 07:14:51;;;;;;;17.33;11.77;;;17.30;99.90;;;;;;5084382;28;20030;-64
2021/07/04 07:17:17;;;;;;;14.35;10.82;;;17.20;99.90;;;;;;5078938;28;20028;-64
2021/07/04 07:19:43;;;;;;;12.38;10.02;;;17.30;99.90;;;;;;5085670;28;20028;-63
2021/07/04 07:22:09;;;;;;;11.30;9.88;;;17.20;99.90;;;;;;5081505;28;20133;-65
2021/07/04 07:24:35;;;;;;;14.90;11.27;;;17.30;99.90;;;;;;5082195;28;20035;-65
2021/07/04 07:27:01;;;;;;;12.82;10.38;;;17.30;99.90;;;;;;5081813;28;20372;-65
2021/07/04 07:29:27;;;;;;;12.82;10.05;;;17.20;99.90;;;;;;5083592;28;20031;-64
2021/07/04 07:31:53;;;;;;;16.35;10.75;;;17.30;99.90;;;;;;5082945;28;20042;-66
2021/07/04 07:34:19;;;;;;;13.57;10.75;;;17.30;99.90;;;;;;5086635;28;20036;-67
2021/07/04 07:36:45;;;;;;;13.77;10.25;;;17.30;99.90;;;;;;5084570;28;20052;-67
2021/07/04 07:39:11;;;;;;;13.60;10.32;;;17.30;99.90;;;;;;5086616;28;20494;-64
2021/07/04 07:41:37;;;;;;;17.25;12.23;;;17.20;99.90;;;;;;5082874;28;20028;-63
2021/07/04 07:44:03;;;;;;;23.63;12.10;;;17.30;99.90;;;;;;5085409;28;20034;-63
2021/07/04 07:46:29;;;;;;;26.60;15.32;;;17.50;99.90;;;;;;5085598;28;20028;-63
2021/07/04 07:48:55;;;;;;;20.50;13.40;;;17.50;99.90;;;;;;5083463;28;20467;-63
2021/07/04 07:51:21;;;;;;;18.45;14.35;;;17.60;99.90;;;;;;5077732;28;20057;-63
2021/07/04 07:53:47;;;;;;;19.02;12.93;;;17.60;99.90;;;;;;5080628;28;20380;-64
2021/07/04 07:56:13;;;;;;;24.63;13.80;;;17.70;99.90;;;;;;5075058;28;20139;-63
2021/07/04 07:58:43;;;;;;;17.38;12.02;;;17.80;99.90;;;;;;5065138;28;20144;-63
2021/07/04 08:01:08;;;;;;;18.15;13.38;;;18.00;99.90;;;;;;5078645;28;20459;-63
2021/07/04 08:03:34;;;;;;;17.90;14.00;;;18.10;99.90;;;;;;5081346;28;20043;-63
2021/07/04 08:06:00;;;;;;;24.17;13.80;;;18.20;99.90;;;;;;5078923;28;20056;-63
2021/07/04 08:08:26;;;;;;;17.63;12.82;;;18.30;99.90;;;;;;5081903;28;20039;-63
2021/07/04 08:10:52;;;;;;;16.48;12.52;;;18.40;99.90;;;;;;5078594;28;20519;-63
2021/07/04 08:13:18;;;;;;;16.63;12.18;;;18.40;99.90;;;;;;5083337;28;20088;-63
2021/07/04 08:15:43;;;;;;;17.40;14.00;;;18.40;99.90;;;;;;5079835;28;20012;-63
2021/07/04 08:18:09;;;;;;;18.90;12.63;;;18.40;99.90;;;;;;5079119;28;20634;-63
2021/07/04 08:20:35;;;;;;;16.60;11.75;;;18.40;99.90;;;;;;5080660;28;20038;-61
2021/07/04 08:23:01;;;;;;;17.98;12.82;;;18.30;99.90;;;;;;5083760;28;20236;-63
2021/07/04 08:25:27;;;;;;;16.95;12.75;;;18.40;99.90;;;;;;5083257;28;20354;-63
2021/07/04 08:27:52;;;;;;;18.70;12.63;;;18.30;99.90;;;;;;5083336;28;20066;-62
2021/07/04 08:30:18;;;;;;;20.30;13.88;;;18.30;99.90;;;;;;5081857;28;20348;-63
2021/07/04 08:32:44;;;;;;;14.82;11.32;;;18.20;99.90;;;;;;5082467;28;20440;-63
2021/07/04 08:35:11;;;;;;;14.05;11.35;;;18.20;99.90;;;;;;5080107;28;20087;-63
2021/07/04 08:37:37;;;;;;;17.95;11.80;;;18.20;99.90;;;;;;5084530;28;20509;-63
2021/07/04 08:40:07;;;;;;;20.65;13.63;;;18.10;99.90;;;;;;5085565;28;20055;-63
2021/07/04 08:42:33;;;;;;;17.85;11.70;;;18.20;99.90;;;;;;5085775;28;20418;-63
2021/07/04 08:44:59;;;;;;;16.95;12.07;;;18.30;99.90;;;;;;5066822;28;20027;-64
2021/07/04 08:47:25;;;;;;;16.15;12.98;;;18.40;99.90;;;;;;5084093;28;22493;-62
2021/07/04 08:49:53;;;;;;;18.65;11.93;;;18.50;99.90;;;;;;5085829;28;20072;-63
2021/07/04 08:52:19;;;;;;;14.55;10.75;;;18.70;99.90;;;;;;5084026;28;20445;-63
2021/07/04 08:54:45;;;;;;;22.33;12.07;;;18.70;99.90;;;;;;5082016;28;20035;-64
2021/07/04 08:57:15;;;;;;;16.33;12.27;;;18.70;99.90;;;;;;5080156;28;20144;-63
2021/07/04 08:59:44;;;;;;;15.98;11.32;;;18.80;99.90;;;;;;5079495;28;20649;-64
2021/07/04 09:02:11;;;;;;;16.67;10.25;;;19.00;99.90;;;;;;5084364;28;20030;-63
2021/07/04 09:04:39;;;;;;;18.10;11.98;;;19.10;99.90;;;;;;5085298;28;20153;-63
2021/07/04 09:07:06;;;;;;;15.70;10.93;;;19.20;99.90;;;;;;5081525;28;20920;-62
2021/07/04 09:09:34;;;;;;;16.08;11.40;;;19.20;99.90;;;;;;5086080;28;20142;-62
2021/07/04 09:12:08;;;;;;;15.43;10.82;;;19.10;99.90;;;;;;5081785;28;20442;-63
2021/07/04 09:14:45;;;;;;;16.85;10.50;;;19.00;99.90;;;;;;5085505;28;20066;-63
2021/07/04 09:17:16;;;;;;;19.85;10.95;;;18.90;99.90;;;;;;5082060;28;20159;-63
2021/07/04 09:19:54;;;;;;;14.60;9.35;;;19.20;99.90;;;;;;5078279;28;20124;-63
2021/07/04 09:22:38;;;;;;;12.38;9.32;;;19.40;99.90;;;;;;5081053;28;20381;-63
2021/07/04 09:25:14;;;;;;;11.40;8.55;;;19.70;99.90;;;;;;5081718;28;20506;-63
2021/07/04 09:27:43;;;;;;;12.90;7.88;;;19.90;99.90;;;;;;5079983;28;20565;-63
2021/07/04 09:30:16;;;;;;;16.53;8.40;;;20.30;99.90;;;;;;5084309;28;20081;-63
2021/07/04 09:32:47;;;;;;;10.80;8.30;;;20.40;99.90;;;;;;5056640;28;20154;-63
2021/07/04 09:35:16;;;;;;;9.77;6.90;;;20.40;99.90;;;;;;5080468;28;20028;-63
2021/07/04 09:37:44;;;;;;;9.32;7.72;;;20.60;99.90;;;;;;5079624;28;20028;-63
2021/07/04 09:40:18;;;;;;;9.80;7.37;;;21.20;99.90;;;;;;5082281;28;20073;-65
2021/07/04 09:42:53;;;;;;;10.63;6.85;;;21.60;99.90;;;;;;5081277;28;21010;-66
2021/07/04 09:45:20;;;;;;;12.13;6.93;;;21.70;99.90;;;;;;5066377;28;20487;-66
2021/07/04 09:47:57;;;;;;;10.80;6.32;;;21.60;99.90;;;;;;5062561;28;20451;-66
2021/07/04 09:50:24;;;;;;;9.57;6.70;;;21.60;99.90;;;;;;5076124;28;20450;-65
2021/07/04 09:52:56;;;;;;;12.25;6.55;;;21.70;99.90;;;;;;5084178;28;20043;-65
2021/07/04 09:55:22;;;;;;;9.88;6.38;;;21.90;99.90;;;;;;5081130;28;20036;-65
2021/07/04 09:57:52;;;;;;;9.52;6.43;;;22.20;99.90;;;;;;5080954;28;20028;-63
2021/07/04 10:00:19;;;;;;;8.73;6.63;;;22.70;99.90;;;;;;5045004;28;20051;-62
2021/07/04 10:03:06;;;;;;;8.70;5.72;;;23.50;99.90;;;;;;5081168;28;20120;-63
2021/07/04 10:05:33;;;;;;;10.30;5.88;;;24.00;99.90;;;;;;5074302;28;20533;-62
2021/07/04 10:07:59;;;;;;;7.45;5.60;;;23.90;99.90;;;;;;5082909;28;20049;-62
2021/07/04 10:10:25;;;;;;;7.35;5.47;;;23.80;99.90;;;;;;5080518;28;20391;-63
2021/07/04 10:12:53;;;;;;;9.02;5.40;;;24.10;99.90;;;;;;5076931;28;20063;-63
2021/07/04 10:15:19;;;;;;;6.93;5.00;;;24.50;99.90;;;;;;5078388;28;20028;-63
2021/07/04 10:17:46;;;;;;;5.95;4.40;;;24.90;99.90;;;;;;5073339;28;20580;-62
2021/07/04 10:20:12;;;;;;;7.13;4.22;;;24.80;99.90;;;;;;5073447;28;20023;-62
2021/07/04 10:22:38;;;;;;;6.72;4.22;;;24.10;99.90;;;;;;5079389;28;20063;-62
2021/07/04 10:25:08;;;;;;;5.68;4.45;;;23.60;99.90;;;;;;5068816;28;20128;-62
2021/07/04 10:27:37;;;;;;;6.18;4.55;;;23.30;99.90;;;;;;5063236;28;20491;-63
2021/07/04 10:30:05;;;;;;;5.60;4.57;;;23.80;99.90;;;;;;5079354;28;20304;-62
2021/07/04 10:32:31;;;;;;;7.00;4.40;;;24.30;99.90;;;;;;5081324;28;20411;-62
2021/07/04 10:35:09;;;;;;;5.88;4.47;;;24.30;99.90;;;;;;5070028;28;20813;-62
2021/07/04 10:37:38;;;;;;;5.80;4.57;;;24.50;99.90;;;;;;5063305;28;20752;-62
2021/07/04 10:40:21;;;;;;;6.10;4.68;;;24.20;99.90;;;;;;5062050;28;20043;-62
2021/07/04 10:42:47;;;;;;;5.70;4.53;;;24.00;99.90;;;;;;5066170;28;20431;-61
2021/07/04 10:45:31;;;;;;;6.50;5.07;;;24.00;99.90;;;;;;5059658;28;20024;-61
2021/07/04 10:48:20;;;;;;;7.65;4.88;;;23.90;99.90;;;;;;5065080;28;20075;-62
2021/07/04 10:51:15;;;;;;;6.50;4.97;;;24.30;99.90;;;;;;5065737;28;20107;-63
2021/07/04 10:53:52;;;;;;;5.13;3.92;;;24.80;99.90;;;;;;5057651;28;20156;-63
2021/07/04 10:56:38;;;;;;;5.68;4.47;;;24.90;99.90;;;;;;5055590;28;20119;-63
2021/07/04 10:59:17;;;;;;;6.18;4.22;;;25.20;99.90;;;;;;5083738;28;20016;-62
2021/07/04 11:01:52;;;;;;;5.35;4.05;;;25.30;99.90;;;;;;5081302;28;20020;-62
2021/07/04 11:04:30;;;;;;;6.07;3.83;;;25.60;99.90;;;;;;5088764;28;20028;-63
2021/07/04 11:07:00;;;;;;;4.72;3.80;;;26.40;99.90;;;;;;5081658;28;20573;-62
2021/07/04 11:09:55;;;;;;;7.18;5.15;;;26.70;99.90;;;;;;5080288;28;20063;-63
2021/07/04 11:12:29;;;;;;;8.10;5.65;;;26.80;99.90;;;;;;5049023;28;20048;-63
2021/07/04 11:15:10;;;;;;;5.00;3.58;;;26.80;99.50;;;;;;5084772;28;20150;-62
2021/07/04 11:17:55;;;;;;;7.68;6.28;;;26.90;99.90;;;;;;5076754;28;20053;-62
2021/07/04 11:20:25;;;;;;;8.10;4.10;;;27.00;98.80;;;;;;5084140;28;20415;-62
2021/07/04 11:22:57;;;;;;;4.18;3.22;;;26.90;99.00;;;;;;5083248;28;20035;-61
2021/07/04 11:25:24;;;;;;;5.95;4.18;;;26.40;99.40;;;;;;5080447;28;20048;-62
2021/07/04 11:28:15;;;;;;;6.20;4.05;;;26.10;99.90;;;;;;5083390;28;20020;-61
2021/07/04 11:30:42;;;;;;;4.72;3.05;;;25.90;99.90;;;;;;5088001;28;20040;-61
2021/07/04 11:33:29;;;;;;;4.53;3.13;;;26.20;99.90;;;;;;5087328;28;20028;-62
2021/07/04 11:36:19;;;;;;;4.25;3.35;;;26.30;99.90;;;;;;5082646;28;20024;-62
2021/07/04 11:39:04;;;;;;;4.72;3.35;;;26.00;99.70;;;;;;5073393;28;20162;-62
2021/07/04 11:41:31;;;;;;;4.30;3.35;;;26.00;99.00;;;;;;5082397;28;20111;-61
2021/07/04 11:44:03;;;;;;;5.15;3.38;;;25.90;99.30;;;;;;5083989;28;20110;-62
2021/07/04 11:46:31;;;;;;;3.55;2.92;;;25.80;99.20;;;;;;5088145;28;20350;-61
2021/07/04 11:49:07;;;;;;;3.97;2.80;;;25.70;99.10;;;;;;5077731;28;20027;-61
2021/07/04 11:51:36;;;;;;;4.80;3.38;;;25.60;99.30;;;;;;5085063;28;20361;-61
2021/07/04 11:54:13;;;;;;;7.13;3.10;;;25.40;99.90;;;;;;5068132;28;20039;-61
2021/07/04 11:56:41;;;;;;;5.70;3.63;;;25.30;99.90;;;;;;5061992;28;20040;-61
2021/07/04 11:59:11;;;;;;;5.10;4.35;;;25.20;99.90;;;;;;5065767;28;20032;-61
2021/07/04 12:01:49;;;;;;;4.13;3.35;;;25.40;99.90;;;;;;5060433;28;20629;-61
2021/07/04 12:04:17;;;;;;;4.60;3.13;;;25.20;99.90;;;;;;5064754;28;20464;-62
2021/07/04 12:06:50;;;;;;;4.05;3.25;;;25.30;99.90;;;;;;5061602;28;20030;-62
2021/07/04 12:09:16;;;;;;;4.68;3.75;;;25.50;99.90;;;;;;5075566;28;20030;-61
2021/07/04 12:11:52;;;;;;;4.50;3.25;;;25.60;99.90;;;;;;5082946;28;20602;-62
2021/07/04 12:14:31;;;;;;;4.35;2.72;;;25.40;99.90;;;;;;5078048;28;20039;-62
2021/07/04 12:17:13;;;;;;;6.07;3.55;;;25.30;99.90;;;;;;5076819;28;20039;-61
2021/07/04 12:19:40;;;;;;;6.05;2.97;;;25.20;99.60;;;;;;5078750;28;20052;-61
2021/07/04 12:22:05;;;;;;;3.85;2.97;;;25.00;99.50;;;;;;5072500;28;20072;-62
2021/07/04 12:24:43;;;;;;;6.78;3.42;;;25.10;99.90;;;;;;5079385;28;20024;-61
2021/07/04 12:27:10;;;;;;;3.22;2.72;;;25.10;99.20;;;;;;5084586;28;20035;-61
2021/07/04 12:30:01;;;;;;;4.32;2.90;;;25.00;99.20;;;;;;5079613;28;20032;-61
2021/07/04 12:32:40;;;;;;;4.63;3.28;;;24.90;99.30;;;;;;5082716;28;20039;-61
2021/07/04 12:35:08;;;;;;;4.95;3.03;;;24.70;99.50;;;;;;5088413;28;20446;-61
2021/07/04 12:37:35;;;;;;;;;;;24.50;99.80;;;;;;5074191;28;20047;-62
2021/07/04 12:40:10;;;;;;;3.88;2.95;;;24.60;99.90;;;;;;5076364;28;19912;-63